Time;durP1;ratioP1;P1;durP2;ratioP2;P2;SDS_P1;SDS_P2;PMS_P1;PMS_P2;Temp;Humidity;BMP_temperature;BMP_pressure;BME280_temperature;BME280_humidity;BME280_pressure;Samples;Min_cycle;Max_cycle;Signal;HPM_P1;HPM_P2
2020/12/16 00:01:08;;;;;;;32.30;19.90;;;8.90;99.90;;;;;;5033094;28;20394;-56
2020/12/16 00:03:34;;;;;;;29.27;19.15;;;8.90;99.90;;;;;;5042005;28;20389;-53
2020/12/16 00:06:00;;;;;;;32.05;19.17;;;8.90;99.90;;;;;;5051282;28;20390;-53
2020/12/16 00:08:26;;;;;;;30.58;18.70;;;8.90;99.90;;;;;;5050016;28;20475;-53
2020/12/16 00:10:52;;;;;;;26.77;17.75;;;9.00;99.90;;;;;;5049743;28;20547;-53
2020/12/16 00:13:17;;;;;;;30.63;19.50;;;9.00;99.90;;;;;;5050517;28;20455;-53
2020/12/16 00:15:44;;;;;;;29.63;18.70;;;9.00;99.90;;;;;;5049523;28;20420;-53
2020/12/16 00:18:11;;;;;;;30.08;19.40;;;8.90;99.90;;;;;;5049982;28;20398;-53
2020/12/16 00:20:36;;;;;;;27.70;19.63;;;8.90;99.90;;;;;;5050438;28;20924;-53
2020/12/16 00:23:02;;;;;;;32.50;19.77;;;8.80;99.90;;;;;;5050963;28;20401;-53
2020/12/16 00:25:28;;;;;;;31.97;20.57;;;8.80;99.90;;;;;;5048321;28;21008;-53
2020/12/16 00:27:53;;;;;;;31.83;18.65;;;8.80;99.90;;;;;;5050624;28;20396;-53
2020/12/16 00:30:19;;;;;;;30.00;19.63;;;8.50;99.90;;;;;;5048810;28;20429;-53
2020/12/16 00:32:45;;;;;;;29.23;18.75;;;8.50;99.90;;;;;;5051640;28;20385;-52
2020/12/16 00:35:10;;;;;;;25.90;18.10;;;8.40;99.90;;;;;;5048402;28;20943;-53
2020/12/16 00:37:43;;;;;;;27.40;18.95;;;8.40;99.90;;;;;;5050971;28;20544;-53
2020/12/16 00:40:11;;;;;;;28.25;19.35;;;8.30;99.90;;;;;;5050820;28;20393;-56
2020/12/16 00:42:37;;;;;;;30.90;20.13;;;8.20;99.90;;;;;;5049046;28;20427;-52
2020/12/16 00:45:07;;;;;;;30.20;18.40;;;8.10;99.90;;;;;;5050912;28;20855;-52
2020/12/16 00:47:36;;;;;;;30.38;18.40;;;8.10;99.90;;;;;;5049176;28;20439;-53
2020/12/16 00:50:04;;;;;;;28.17;17.03;;;8.10;99.90;;;;;;5050612;28;20879;-53
2020/12/16 00:52:30;;;;;;;26.38;17.30;;;8.00;99.90;;;;;;5050701;28;20753;-53
2020/12/16 00:54:55;;;;;;;25.95;17.38;;;8.00;99.90;;;;;;5048987;28;20397;-52
2020/12/16 00:57:22;;;;;;;25.83;16.53;;;7.90;99.90;;;;;;5049991;28;20405;-52
2020/12/16 00:59:48;;;;;;;26.13;17.33;;;8.00;99.90;;;;;;5048711;28;20404;-52
2020/12/16 01:02:13;;;;;;;30.43;18.23;;;8.00;99.90;;;;;;5048273;28;20792;-53
2020/12/16 01:04:39;;;;;;;26.17;16.50;;;7.90;99.90;;;;;;5050361;28;20372;-53
2020/12/16 01:07:05;;;;;;;28.88;17.88;;;7.90;99.90;;;;;;5048961;28;20919;-53
2020/12/16 01:09:31;;;;;;;29.43;18.47;;;7.90;99.90;;;;;;5049856;28;20412;-53
2020/12/16 01:11:56;;;;;;;27.73;18.45;;;8.00;99.90;;;;;;5048843;28;20798;-52
2020/12/16 01:14:22;;;;;;;28.20;17.77;;;8.00;99.90;;;;;;5049763;28;20390;-53
2020/12/16 01:16:49;;;;;;;32.33;18.53;;;7.90;99.90;;;;;;5048740;28;20485;-53
2020/12/16 01:19:14;;;;;;;30.08;18.60;;;7.90;99.90;;;;;;5049820;28;20386;-53
2020/12/16 01:21:40;;;;;;;27.53;17.83;;;8.00;99.90;;;;;;5048563;28;20587;-53
2020/12/16 01:24:06;;;;;;;28.83;18.38;;;8.00;99.90;;;;;;5049257;28;20392;-55
2020/12/16 01:26:46;;;;;;;25.65;17.02;;;8.00;99.90;;;;;;5047659;28;20410;-53
2020/12/16 01:29:13;;;;;;;24.92;17.13;;;8.10;99.90;;;;;;5048627;28;20393;-53
2020/12/16 01:31:39;;;;;;;26.92;17.23;;;8.10;99.90;;;;;;5049189;28;20537;-53
2020/12/16 01:34:05;;;;;;;28.27;17.63;;;8.10;99.90;;;;;;5050374;28;20442;-53
2020/12/16 01:36:31;;;;;;;25.25;16.48;;;8.10;99.90;;;;;;5047298;28;20413;-54
2020/12/16 01:38:57;;;;;;;26.90;17.90;;;8.10;99.90;;;;;;5049769;28;20732;-53
2020/12/16 01:41:24;;;;;;;27.60;16.30;;;8.20;99.90;;;;;;5047574;28;20421;-53
2020/12/16 01:43:50;;;;;;;26.10;16.08;;;8.30;99.90;;;;;;5049799;28;20417;-53
2020/12/16 01:46:16;;;;;;;22.48;15.90;;;8.50;99.90;;;;;;5047540;28;20405;-53
2020/12/16 01:48:42;;;;;;;25.55;15.18;;;8.50;99.90;;;;;;5049757;28;20823;-53
2020/12/16 01:51:15;;;;;;;23.70;15.80;;;8.50;99.90;;;;;;5047377;28;20401;-55
2020/12/16 01:53:44;;;;;;;22.23;14.18;;;8.40;99.90;;;;;;5049675;28;20389;-53
2020/12/16 01:56:12;;;;;;;21.73;15.13;;;8.50;99.90;;;;;;5048971;28;20393;-56
2020/12/16 01:58:42;;;;;;;24.27;13.70;;;8.50;99.90;;;;;;5047619;28;20401;-53
2020/12/16 02:01:14;;;;;;;21.45;14.45;;;8.50;99.90;;;;;;5049544;28;20488;-56
2020/12/16 02:03:44;;;;;;;19.85;13.40;;;8.50;99.90;;;;;;5049936;28;20373;-53
2020/12/16 02:06:13;;;;;;;23.05;14.65;;;8.60;99.90;;;;;;5048151;28;20397;-56
2020/12/16 02:08:42;;;;;;;21.67;14.60;;;8.80;99.90;;;;;;5047958;28;21318;-53
2020/12/16 02:11:08;;;;;;;20.00;13.45;;;8.90;99.90;;;;;;5049621;28;20396;-56
2020/12/16 02:13:34;;;;;;;22.75;13.90;;;9.00;99.90;;;;;;5047218;28;20415;-53
2020/12/16 02:15:59;;;;;;;21.67;14.77;;;9.10;99.90;;;;;;5049415;28;20503;-52
2020/12/16 02:18:25;;;;;;;26.58;16.35;;;9.20;99.90;;;;;;5046960;28;20405;-54
2020/12/16 02:20:51;;;;;;;23.23;14.80;;;9.30;99.90;;;;;;5048875;28;20538;-53
2020/12/16 02:23:18;;;;;;;21.83;15.15;;;9.30;99.90;;;;;;5047575;28;20393;-53
2020/12/16 02:25:46;;;;;;;21.93;13.90;;;9.30;99.90;;;;;;5048240;28;20397;-54
2020/12/16 02:28:12;;;;;;;22.92;13.98;;;9.30;99.90;;;;;;5048914;28;20925;-55
2020/12/16 02:30:37;;;;;;;21.50;14.47;;;9.30;99.90;;;;;;5047645;28;20401;-53
2020/12/16 02:33:03;;;;;;;20.83;13.80;;;9.40;99.90;;;;;;5049442;28;20889;-54
2020/12/16 02:35:28;;;;;;;21.30;14.37;;;9.30;99.90;;;;;;5047125;28;20393;-53
2020/12/16 02:37:54;;;;;;;21.90;13.65;;;9.40;99.90;;;;;;5048831;28;20477;-53
2020/12/16 02:40:20;;;;;;;20.33;13.90;;;9.40;99.90;;;;;;5048854;28;20374;-53
2020/12/16 02:42:45;;;;;;;19.25;13.45;;;9.40;99.90;;;;;;5047551;28;20400;-53
2020/12/16 02:45:11;;;;;;;19.87;12.40;;;9.40;99.90;;;;;;5048854;28;20382;-56
2020/12/16 02:47:36;;;;;;;20.02;12.60;;;9.30;99.90;;;;;;5047598;28;20405;-53
2020/12/16 02:50:03;;;;;;;23.53;13.17;;;9.30;99.90;;;;;;5051735;28;20404;-53
2020/12/16 02:52:30;;;;;;;16.73;11.52;;;9.20;99.90;;;;;;5050565;28;20417;-53
2020/12/16 02:54:55;;;;;;;21.77;14.02;;;9.30;99.90;;;;;;5052939;28;20386;-53
2020/12/16 02:57:21;;;;;;;19.75;13.45;;;9.30;99.90;;;;;;5050281;28;20417;-55
2020/12/16 02:59:58;;;;;;;19.00;12.60;;;9.30;99.90;;;;;;5053166;28;20373;-53
2020/12/16 03:02:23;;;;;;;20.27;13.83;;;9.20;99.90;;;;;;5050879;28;20408;-54
2020/12/16 03:04:49;;;;;;;18.08;12.48;;;9.30;99.90;;;;;;5052094;28;20386;-53
2020/12/16 03:07:15;;;;;;;20.47;12.23;;;9.30;99.90;;;;;;5051771;28;20384;-53
2020/12/16 03:09:40;;;;;;;20.23;12.97;;;9.20;99.90;;;;;;5051891;28;20397;-53
2020/12/16 03:12:06;;;;;;;23.60;13.82;;;9.30;99.90;;;;;;5052675;28;20743;-53
2020/12/16 03:14:32;;;;;;;20.50;12.90;;;9.20;99.90;;;;;;5049696;28;21230;-53
2020/12/16 03:16:57;;;;;;;22.38;13.60;;;9.10;99.90;;;;;;5052234;28;20435;-52
2020/12/16 03:19:23;;;;;;;22.43;13.50;;;9.00;99.90;;;;;;5050146;28;20393;-53
2020/12/16 03:21:48;;;;;;;19.50;13.70;;;9.00;99.90;;;;;;5052761;28;20390;-52
2020/12/16 03:24:14;;;;;;;19.13;13.07;;;9.00;99.90;;;;;;5051626;28;20400;-53
2020/12/16 03:26:40;;;;;;;20.63;13.90;;;8.90;99.90;;;;;;5050607;28;20883;-54
2020/12/16 03:29:06;;;;;;;21.55;13.90;;;8.90;99.90;;;;;;5052498;28;20392;-53
2020/12/16 03:31:32;;;;;;;21.40;13.43;;;8.80;99.90;;;;;;5051723;28;20466;-53
2020/12/16 03:33:57;;;;;;;19.63;13.70;;;8.90;99.90;;;;;;5050713;28;20463;-53
2020/12/16 03:36:23;;;;;;;22.65;13.90;;;9.00;99.90;;;;;;5050510;28;20417;-53
2020/12/16 03:38:49;;;;;;;18.73;13.03;;;9.00;99.90;;;;;;5051233;28;20801;-53
2020/12/16 03:41:16;;;;;;;25.05;14.05;;;9.10;99.90;;;;;;5051859;28;20394;-53
2020/12/16 03:43:46;;;;;;;21.13;13.10;;;9.10;99.90;;;;;;5051560;28;20377;-53
2020/12/16 03:46:12;;;;;;;19.98;12.95;;;9.00;99.90;;;;;;5050717;28;20398;-55
2020/12/16 03:48:39;;;;;;;20.60;12.70;;;9.10;99.90;;;;;;5052387;28;20526;-53
2020/12/16 03:51:11;;;;;;;20.10;12.98;;;9.00;99.90;;;;;;5051571;28;20450;-53
2020/12/16 03:53:38;;;;;;;18.70;13.13;;;9.10;99.90;;;;;;5051073;28;20405;-53
2020/12/16 03:56:08;;;;;;;18.50;13.10;;;9.20;99.90;;;;;;5050055;28;20458;-53
2020/12/16 03:58:34;;;;;;;19.05;13.10;;;9.20;99.90;;;;;;5051200;28;20408;-53
2020/12/16 04:01:05;;;;;;;22.55;13.80;;;9.20;99.90;;;;;;5051792;28;20476;-53
2020/12/16 04:03:31;;;;;;;21.67;14.07;;;9.20;99.90;;;;;;5049499;28;20397;-53
2020/12/16 04:05:56;;;;;;;20.73;14.07;;;9.20;99.90;;;;;;5051787;28;20836;-55
2020/12/16 04:08:22;;;;;;;21.52;14.55;;;9.30;99.90;;;;;;5048885;28;20441;-53
2020/12/16 04:10:48;;;;;;;21.47;13.90;;;9.20;99.90;;;;;;5050988;28;20416;-55
2020/12/16 04:13:14;;;;;;;22.67;14.88;;;9.20;99.90;;;;;;5050157;28;20767;-55
2020/12/16 04:15:42;;;;;;;23.33;14.73;;;9.10;99.90;;;;;;5051695;28;20378;-53
2020/12/16 04:18:08;;;;;;;23.88;16.25;;;9.00;99.90;;;;;;5049863;28;20421;-52
2020/12/16 04:20:34;;;;;;;21.63;14.85;;;9.00;99.90;;;;;;5048707;28;20432;-53
2020/12/16 04:22:59;;;;;;;22.92;15.30;;;9.00;99.90;;;;;;5050367;28;20401;-53
2020/12/16 04:25:25;;;;;;;23.43;15.97;;;8.80;99.90;;;;;;5050508;28;20373;-53
2020/12/16 04:27:51;;;;;;;23.83;14.70;;;8.60;99.90;;;;;;5049616;28;20381;-54
2020/12/16 04:30:17;;;;;;;27.85;16.50;;;8.50;99.90;;;;;;5049877;28;20401;-53
2020/12/16 04:32:44;;;;;;;28.50;16.75;;;8.40;99.90;;;;;;5049661;28;20405;-53
2020/12/16 04:35:09;;;;;;;22.48;16.15;;;8.20;99.90;;;;;;5046900;28;20382;-55
2020/12/16 04:37:35;;;;;;;28.08;15.60;;;8.20;99.90;;;;;;5047956;28;20453;-52
2020/12/16 04:40:01;;;;;;;23.60;15.70;;;8.30;99.90;;;;;;5048998;28;20404;-54
2020/12/16 04:42:26;;;;;;;25.65;15.88;;;8.20;99.90;;;;;;5050552;28;20459;-53
2020/12/16 04:44:53;;;;;;;25.03;15.80;;;8.10;99.90;;;;;;5050794;28;20377;-53
2020/12/16 04:47:19;;;;;;;22.47;15.27;;;8.00;99.90;;;;;;5048512;28;20401;-53
2020/12/16 04:49:45;;;;;;;24.25;15.13;;;8.10;99.90;;;;;;5050110;28;20501;-53
2020/12/16 04:52:11;;;;;;;20.90;14.20;;;8.10;99.90;;;;;;5049104;28;20794;-55
2020/12/16 04:54:37;;;;;;;22.40;15.32;;;8.20;99.90;;;;;;5050773;28;20382;-53
2020/12/16 04:57:06;;;;;;;24.38;16.30;;;8.30;99.90;;;;;;5048914;28;20420;-53
2020/12/16 04:59:32;;;;;;;23.33;16.00;;;8.30;99.90;;;;;;5049334;28;20549;-53
2020/12/16 05:01:58;;;;;;;23.77;15.23;;;8.30;99.90;;;;;;5050305;28;20891;-53
2020/12/16 05:04:24;;;;;;;25.43;15.70;;;8.30;99.90;;;;;;5049039;28;20397;-53
2020/12/16 05:06:49;;;;;;;25.40;15.48;;;8.30;99.90;;;;;;5058485;28;20955;-53
2020/12/16 05:09:16;;;;;;;25.50;14.93;;;8.20;99.90;;;;;;5048095;28;20906;-53
2020/12/16 05:11:50;;;;;;;22.88;15.57;;;8.20;99.90;;;;;;5050023;28;20381;-53
2020/12/16 05:14:24;;;;;;;22.60;14.50;;;8.20;99.90;;;;;;5048486;28;20385;-53
2020/12/16 05:17:04;;;;;;;25.77;15.90;;;8.20;99.90;;;;;;5050673;28;20500;-52
2020/12/16 05:19:44;;;;;;;26.25;16.20;;;8.20;99.90;;;;;;5044788;28;20415;-53
2020/12/16 05:22:24;;;;;;;29.15;18.25;;;8.30;99.90;;;;;;5031079;28;20514;-56
2020/12/16 05:24:55;;;;;;;24.40;15.95;;;8.20;99.90;;;;;;5035326;28;20491;-53
2020/12/16 05:27:32;;;;;;;27.87;16.57;;;8.20;99.90;;;;;;5048922;28;20382;-53
2020/12/16 05:30:06;;;;;;;24.90;16.50;;;8.10;99.90;;;;;;5050104;28;20468;-53
2020/12/16 05:32:35;;;;;;;24.67;16.00;;;8.10;99.90;;;;;;5047499;28;20397;-53
2020/12/16 05:35:18;;;;;;;26.38;17.70;;;8.10;99.90;;;;;;5049913;28;20385;-53
2020/12/16 05:37:44;;;;;;;25.73;17.10;;;8.10;99.90;;;;;;5076810;28;20778;-53
2020/12/16 05:40:15;;;;;;;25.55;17.40;;;8.10;99.90;;;;;;5046916;28;20377;-56
2020/12/16 05:42:41;;;;;;;25.70;16.90;;;8.10;99.90;;;;;;5081218;28;20421;-53
2020/12/16 05:45:15;;;;;;;24.40;15.43;;;8.10;99.90;;;;;;5048669;28;20421;-52
2020/12/16 05:47:58;;;;;;;24.95;15.35;;;7.90;99.90;;;;;;5045398;28;21221;-53
2020/12/16 05:50:24;;;;;;;24.25;15.70;;;7.80;99.90;;;;;;5038618;28;20844;-53
2020/12/16 05:53:06;;;;;;;23.92;16.10;;;7.90;99.90;;;;;;5051865;28;20475;-53
2020/12/16 05:55:31;;;;;;;25.42;15.82;;;7.90;99.90;;;;;;5046494;28;21054;-53
2020/12/16 05:58:11;;;;;;;24.60;15.50;;;7.90;99.90;;;;;;5048335;28;20381;-53
2020/12/16 06:00:59;;;;;;;21.43;13.70;;;7.90;99.90;;;;;;5049154;28;20401;-53
2020/12/16 06:03:35;;;;;;;22.00;14.18;;;7.80;99.90;;;;;;5048836;28;20393;-53
2020/12/16 06:06:10;;;;;;;24.20;14.30;;;7.80;99.90;;;;;;5049649;28;20389;-53
2020/12/16 06:08:43;;;;;;;24.05;15.32;;;7.80;99.90;;;;;;5046746;28;20409;-53
2020/12/16 06:11:11;;;;;;;22.90;14.77;;;7.80;99.90;;;;;;5046806;28;20403;-53
2020/12/16 06:13:38;;;;;;;19.58;13.68;;;7.80;99.90;;;;;;5047812;28;20434;-53
2020/12/16 06:16:05;;;;;;;23.35;14.80;;;7.70;99.90;;;;;;5050622;28;20441;-53
2020/12/16 06:18:43;;;;;;;25.10;14.82;;;7.70;99.90;;;;;;5052320;28;20455;-53
2020/12/16 06:21:10;;;;;;;22.88;15.00;;;7.70;99.90;;;;;;5035929;28;20753;-54
2020/12/16 06:23:45;;;;;;;22.70;15.15;;;7.70;99.90;;;;;;5043679;28;20434;-53
2020/12/16 06:26:16;;;;;;;22.48;15.23;;;7.50;99.90;;;;;;5051851;28;20424;-56
2020/12/16 06:28:43;;;;;;;24.20;14.98;;;7.50;99.90;;;;;;5052226;28;20397;-54
2020/12/16 06:31:31;;;;;;;24.55;15.00;;;7.40;99.90;;;;;;5052805;28;20386;-55
2020/12/16 06:33:58;;;;;;;25.23;16.08;;;7.30;99.90;;;;;;5045969;28;20401;-53
2020/12/16 06:36:27;;;;;;;24.63;15.85;;;7.20;99.90;;;;;;5049032;28;20794;-53
2020/12/16 06:38:53;;;;;;;26.58;15.73;;;7.20;99.90;;;;;;5050949;28;20470;-52
2020/12/16 06:41:21;;;;;;;23.38;14.93;;;7.20;99.90;;;;;;5052001;28;20382;-52
2020/12/16 06:43:49;;;;;;;23.02;14.88;;;7.20;99.90;;;;;;5051685;28;20404;-53
2020/12/16 06:46:33;;;;;;;27.05;14.43;;;7.20;99.90;;;;;;5050661;28;20476;-55
2020/12/16 06:49:11;;;;;;;26.70;15.30;;;9.40;99.90;;;;;;5050684;28;20412;-52
2020/12/16 06:51:47;;;;;;;23.05;14.70;;;7.20;99.90;;;;;;5050225;28;20397;-52
2020/12/16 06:54:18;;;;;;;23.80;14.70;;;7.20;99.90;;;;;;5052153;28;20931;-55
2020/12/16 06:56:49;;;;;;;23.08;14.48;;;7.20;99.90;;;;;;5045326;28;20417;-53
2020/12/16 06:59:35;;;;;;;26.92;16.05;;;7.10;99.90;;;;;;5050376;28;20409;-53
2020/12/16 07:02:34;;;;;;;23.73;15.80;;;7.00;99.90;;;;;;5051307;28;20404;-53
2020/12/16 07:05:02;;;;;;;23.77;13.83;;;7.00;99.90;;;;;;5040809;28;20541;-53
2020/12/16 07:07:42;;;;;;;26.90;16.85;;;7.00;99.90;;;;;;5050759;28;20381;-53
2020/12/16 07:10:33;;;;;;;29.83;16.88;;;7.00;99.90;;;;;;5048671;28;20546;-53
2020/12/16 07:13:12;;;;;;;28.67;16.20;;;7.00;99.90;;;;;;5043424;28;20401;-53
2020/12/16 07:15:47;;;;;;;26.67;15.65;;;6.60;99.90;;;;;;5051390;28;20395;-53
2020/12/16 07:18:25;;;;;;;30.50;16.90;;;7.00;99.90;;;;;;5046155;28;20427;-56
2020/12/16 07:20:57;;;;;;;28.80;16.00;;;7.00;99.90;;;;;;5046785;28;20876;-53
2020/12/16 07:23:28;;;;;;;30.10;16.60;;;7.10;99.90;;;;;;5054853;28;20401;-53
2020/12/16 07:26:01;;;;;;;27.92;15.77;;;7.10;99.90;;;;;;5058565;28;20403;-53
2020/12/16 07:28:27;;;;;;;24.40;14.88;;;7.10;99.90;;;;;;5058898;28;20395;-54
2020/12/16 07:30:53;;;;;;;28.10;16.10;;;7.00;99.90;;;;;;5055109;28;20393;-53
2020/12/16 07:33:19;;;;;;;25.88;15.00;;;7.00;99.90;;;;;;5042646;28;20405;-55
2020/12/16 07:35:46;;;;;;;24.50;14.40;;;7.00;99.90;;;;;;5039775;28;20412;-54
2020/12/16 07:38:13;;;;;;;24.30;13.68;;;7.00;99.90;;;;;;5039279;28;20428;-56
2020/12/16 07:40:39;;;;;;;23.67;14.00;;;6.90;99.90;;;;;;5042396;28;20441;-54
2020/12/16 07:43:08;;;;;;;20.38;13.00;;;7.00;99.90;;;;;;5033992;28;20431;-53
2020/12/16 07:45:34;;;;;;;22.50;13.30;;;6.90;99.90;;;;;;5043772;28;20405;-53
2020/12/16 07:48:02;;;;;;;24.48;14.93;;;6.90;99.90;;;;;;5041492;28;20386;-52
2020/12/16 07:50:27;;;;;;;25.65;15.32;;;6.80;99.90;;;;;;5038823;28;20443;-52
2020/12/16 07:52:53;;;;;;;21.95;14.00;;;6.90;99.90;;;;;;5043542;28;20403;-52
2020/12/16 07:55:23;;;;;;;25.40;13.97;;;6.90;99.90;;;;;;5045584;28;20744;-53
2020/12/16 07:57:49;;;;;;;19.58;12.93;;;6.90;99.90;;;;;;5039567;28;20422;-53
2020/12/16 08:00:21;;;;;;;21.63;13.27;;;6.80;99.90;;;;;;5046989;28;20392;-53
2020/12/16 08:02:54;;;;;;;22.00;12.70;;;6.80;99.90;;;;;;5041325;28;20464;-53
2020/12/16 08:05:19;;;;;;;20.48;13.05;;;6.90;99.90;;;;;;5044256;28;20456;-53
2020/12/16 08:07:46;;;;;;;23.33;13.63;;;6.90;99.90;;;;;;5043621;28;20530;-53
2020/12/16 08:10:11;;;;;;;21.33;13.02;;;7.00;99.90;;;;;;5046463;28;21346;-54
2020/12/16 08:12:40;;;;;;;23.53;13.70;;;7.20;99.90;;;;;;5036518;28;21084;-52
2020/12/16 08:15:10;;;;;;;21.98;13.50;;;7.20;99.90;;;;;;5044495;28;20404;-53
2020/12/16 08:17:42;;;;;;;20.55;12.75;;;7.20;99.90;;;;;;5043466;28;20405;-52
2020/12/16 08:20:11;;;;;;;22.00;12.47;;;7.20;99.90;;;;;;5047333;28;20393;-53
2020/12/16 08:22:39;;;;;;;22.98;13.50;;;7.20;99.90;;;;;;5048581;28;20505;-52
2020/12/16 08:25:10;;;;;;;20.67;12.60;;;7.20;99.90;;;;;;5048857;28;20436;-53
2020/12/16 08:27:50;;;;;;;19.25;12.13;;;7.30;99.90;;;;;;5042132;28;20404;-53
2020/12/16 08:30:24;;;;;;;20.83;13.20;;;7.30;99.90;;;;;;5043799;28;20397;-53
2020/12/16 08:33:17;;;;;;;20.88;13.05;;;7.30;99.90;;;;;;5042799;28;20407;-53
2020/12/16 08:35:49;;;;;;;21.58;13.52;;;7.40;99.90;;;;;;5047493;28;20446;-51
2020/12/16 08:38:23;;;;;;;21.30;12.85;;;7.50;99.90;;;;;;5044919;28;20429;-54
2020/12/16 08:40:49;;;;;;;21.50;12.43;;;7.50;99.90;;;;;;5048310;28;20370;-53
2020/12/16 08:43:31;;;;;;;20.00;12.30;;;7.60;99.90;;;;;;5046933;28;20420;-55
2020/12/16 08:46:17;;;;;;;18.42;12.02;;;7.70;99.90;;;;;;5044227;28;20395;-53
2020/12/16 08:48:53;;;;;;;19.05;11.82;;;7.80;99.90;;;;;;5046715;28;20882;-53
2020/12/16 08:51:22;;;;;;;20.38;12.00;;;7.90;99.90;;;;;;5042762;28;20420;-53
2020/12/16 08:53:59;;;;;;;18.33;11.80;;;8.10;99.90;;;;;;5045576;28;20478;-53
2020/12/16 08:56:29;;;;;;;17.30;10.55;;;8.30;99.90;;;;;;5046055;28;20442;-53
2020/12/16 08:59:08;;;;;;;17.10;10.70;;;8.50;99.90;;;;;;5044383;28;20804;-53
2020/12/16 09:01:36;;;;;;;14.68;10.07;;;9.10;99.90;;;;;;5056592;28;21030;-53
2020/12/16 09:04:03;;;;;;;15.35;11.05;;;9.60;99.90;;;;;;5040862;28;20855;-53
2020/12/16 09:06:28;;;;;;;13.68;10.07;;;10.10;99.90;;;;;;5044553;28;20391;-53
2020/12/16 09:08:54;;;;;;;13.77;10.00;;;10.30;99.90;;;;;;5046857;28;20453;-53
2020/12/16 09:11:20;;;;;;;15.68;9.85;;;10.20;99.90;;;;;;5036233;28;20387;-54
2020/12/16 09:13:50;;;;;;;15.65;10.38;;;10.20;99.90;;;;;;5037875;28;20549;-54
2020/12/16 09:16:21;;;;;;;13.60;9.60;;;10.00;99.90;;;;;;5041098;28;20417;-55
2020/12/16 09:18:48;;;;;;;13.80;9.07;;;10.00;99.90;;;;;;5043851;28;20393;-54
2020/12/16 09:21:17;;;;;;;15.82;9.30;;;10.10;99.90;;;;;;5042179;28;20411;-56
2020/12/16 09:23:43;;;;;;;15.47;9.80;;;10.40;99.90;;;;;;5039724;28;20411;-54
2020/12/16 09:26:09;;;;;;;13.03;7.90;;;11.10;99.90;;;;;;5049207;28;20388;-53
2020/12/16 09:28:37;;;;;;;12.95;7.90;;;12.30;99.90;;;;;;5045665;28;20389;-52
2020/12/16 09:31:21;;;;;;;11.85;8.27;;;13.30;99.90;;;;;;5041424;28;20406;-54
2020/12/16 09:33:59;;;;;;;13.02;7.68;;;14.50;99.90;;;;;;5041213;28;20374;-54
2020/12/16 09:36:29;;;;;;;10.23;7.20;;;15.40;99.90;;;;;;5055024;28;20453;-54
2020/12/16 09:38:56;;;;;;;10.65;7.30;;;15.50;99.90;;;;;;5041866;28;20421;-54
2020/12/16 09:41:22;;;;;;;10.40;7.82;;;16.40;99.90;;;;;;5038715;28;20855;-54
2020/12/16 09:43:47;;;;;;;10.03;7.30;;;16.10;99.90;;;;;;5040742;28;20382;-54
2020/12/16 09:46:21;;;;;;;11.00;7.50;;;15.60;99.90;;;;;;5038151;28;20387;-53
2020/12/16 09:48:49;;;;;;;11.85;7.85;;;15.40;99.90;;;;;;5041997;28;20424;-54
2020/12/16 09:51:19;;;;;;;10.43;6.60;;;16.00;99.90;;;;;;5043388;28;20397;-57
2020/12/16 09:53:46;;;;;;;10.70;6.80;;;16.90;99.90;;;;;;5043213;28;20405;-52
2020/12/16 09:56:28;;;;;;;11.18;7.30;;;16.80;99.90;;;;;;5044985;28;21001;-54
2020/12/16 09:58:55;;;;;;;12.38;7.05;;;16.30;99.90;;;;;;5044348;28;20426;-52
2020/12/16 10:01:21;;;;;;;11.38;7.20;;;16.20;99.90;;;;;;5044746;28;20488;-54
2020/12/16 10:03:50;;;;;;;11.53;7.33;;;16.10;99.90;;;;;;5046502;28;20384;-55
2020/12/16 10:06:17;;;;;;;11.00;7.57;;;16.40;99.90;;;;;;5043437;28;20466;-57
2020/12/16 10:08:44;;;;;;;11.35;7.28;;;16.60;99.90;;;;;;5042483;28;20446;-54
2020/12/16 10:11:13;;;;;;;10.25;7.50;;;16.70;99.90;;;;;;5045429;28;20477;-54
2020/12/16 10:13:41;;;;;;;14.13;8.13;;;16.70;99.90;;;;;;5044826;28;20403;-54
2020/12/16 10:16:11;;;;;;;11.90;7.53;;;17.00;99.90;;;;;;5044314;28;20906;-55
2020/12/16 10:18:37;;;;;;;10.75;7.93;;;17.10;99.90;;;;;;5041077;28;20393;-54
2020/12/16 10:21:04;;;;;;;12.20;8.05;;;17.50;99.90;;;;;;5040771;28;20397;-55
2020/12/16 10:23:32;;;;;;;13.77;8.20;;;17.80;99.90;;;;;;5045875;28;20378;-54
2020/12/16 10:25:58;;;;;;;13.00;7.33;;;18.20;99.90;;;;;;5044773;28;20396;-54
2020/12/16 10:28:24;;;;;;;11.30;7.30;;;18.10;99.90;;;;;;5046808;28;20854;-54
2020/12/16 10:30:50;;;;;;;11.85;7.82;;;17.90;99.90;;;;;;5042688;28;20460;-54
2020/12/16 10:33:17;;;;;;;14.00;8.05;;;16.70;99.90;;;;;;5043207;28;20396;-57
2020/12/16 10:35:44;;;;;;;15.83;8.23;;;16.20;99.90;;;;;;5045224;28;20417;-54
2020/12/16 10:38:10;;;;;;;11.02;7.65;;;16.20;99.90;;;;;;5046235;28;20417;-54
2020/12/16 10:40:37;;;;;;;10.68;7.18;;;16.40;99.90;;;;;;5045548;28;20745;-54
2020/12/16 10:43:05;;;;;;;10.75;7.82;;;16.70;99.90;;;;;;5046365;28;20406;-54
2020/12/16 10:45:31;;;;;;;12.80;7.45;;;16.70;99.90;;;;;;5036656;28;20481;-54
2020/12/16 10:47:59;;;;;;;13.20;7.72;;;16.70;99.90;;;;;;5031003;28;20865;-57
2020/12/16 10:50:25;;;;;;;11.65;7.65;;;17.10;99.90;;;;;;5037167;28;20397;-54
2020/12/16 10:52:51;;;;;;;12.75;8.05;;;17.40;99.90;;;;;;5041576;28;20409;-53
2020/12/16 10:55:17;;;;;;;11.85;7.90;;;17.30;99.90;;;;;;5037503;28;20492;-54
2020/12/16 10:57:44;;;;;;;11.93;7.88;;;17.40;99.90;;;;;;5035452;28;20403;-54
2020/12/16 11:00:10;;;;;;;12.50;7.97;;;17.00;99.90;;;;;;5045303;28;20401;-54
2020/12/16 11:02:35;;;;;;;12.48;7.70;;;16.70;99.90;;;;;;5041467;28;20507;-53
2020/12/16 11:05:01;;;;;;;12.15;7.70;;;16.50;99.90;;;;;;5042868;28;20468;-54
2020/12/16 11:07:26;;;;;;;15.63;7.87;;;16.70;99.90;;;;;;5038519;28;20845;-53
2020/12/16 11:09:52;;;;;;;13.87;7.73;;;17.00;99.90;;;;;;5044288;28;20849;-54
2020/12/16 11:12:18;;;;;;;10.93;7.80;;;17.20;99.90;;;;;;5043025;28;22033;-55
2020/12/16 11:14:43;;;;;;;11.70;7.47;;;17.30;99.90;;;;;;5040895;28;20627;-54
2020/12/16 11:17:09;;;;;;;13.97;8.00;;;17.20;99.90;;;;;;5039354;28;20462;-53
2020/12/16 11:19:35;;;;;;;11.68;8.10;;;16.60;99.90;;;;;;5075404;28;20469;-52
2020/12/16 11:22:00;;;;;;;11.20;7.80;;;16.10;99.90;;;;;;5043227;28;20429;-51
2020/12/16 11:24:27;;;;;;;11.57;7.47;;;15.60;99.90;;;;;;5046793;28;20397;-52
2020/12/16 11:26:53;;;;;;;10.93;7.65;;;15.00;99.90;;;;;;5048537;28;20456;-53
2020/12/16 11:29:22;;;;;;;13.50;8.40;;;14.60;99.90;;;;;;5048909;28;20430;-55
2020/12/16 11:31:51;;;;;;;12.60;8.10;;;14.00;99.90;;;;;;5049391;28;20404;-52
2020/12/16 11:34:20;;;;;;;13.50;8.17;;;13.60;99.90;;;;;;5040693;28;20392;-54
2020/12/16 11:36:48;;;;;;;13.13;7.75;;;13.30;99.90;;;;;;5044412;28;20416;-53
2020/12/16 11:39:14;;;;;;;12.85;8.32;;;13.40;99.90;;;;;;5044616;28;20417;-52
2020/12/16 11:41:56;;;;;;;12.90;8.50;;;13.40;99.90;;;;;;5050335;28;20501;-53
2020/12/16 11:44:24;;;;;;;14.00;9.73;;;13.30;99.90;;;;;;5046645;28;20401;-53
2020/12/16 11:46:51;;;;;;;15.15;9.20;;;13.40;99.90;;;;;;5041140;28;20390;-56
2020/12/16 11:49:17;;;;;;;14.05;7.70;;;13.50;99.90;;;;;;5038318;28;20377;-56
2020/12/16 11:51:43;;;;;;;14.57;9.25;;;10.90;99.90;;;;;;5044317;28;20409;-53
2020/12/16 11:54:08;;;;;;;14.00;9.10;;;13.40;99.90;;;;;;5047845;28;20385;-53
2020/12/16 11:56:35;;;;;;;13.75;9.20;;;13.40;99.90;;;;;;5040174;28;20422;-53
2020/12/16 11:59:03;;;;;;;12.80;9.30;;;13.60;99.90;;;;;;5047653;28;20400;-54
2020/12/16 12:01:28;;;;;;;16.13;9.30;;;13.70;99.90;;;;;;5038787;28;20484;-54
2020/12/16 12:03:54;;;;;;;15.70;9.63;;;13.70;99.90;;;;;;5039529;28;20533;-54
2020/12/16 12:06:20;;;;;;;15.87;8.90;;;13.80;99.90;;;;;;5042280;28;20987;-56
2020/12/16 12:08:45;;;;;;;15.85;9.30;;;13.80;99.90;;;;;;5040769;28;20823;-53
2020/12/16 12:11:13;;;;;;;15.10;9.00;;;13.70;99.90;;;;;;5042144;28;20464;-53
2020/12/16 12:13:40;;;;;;;14.07;9.40;;;13.70;99.90;;;;;;5044161;28;20443;-53
2020/12/16 12:16:14;;;;;;;15.60;8.40;;;13.70;99.90;;;;;;5043934;28;20446;-56
2020/12/16 12:18:40;;;;;;;14.05;9.02;;;13.60;99.90;;;;;;5070977;28;20392;-53
2020/12/16 12:21:10;;;;;;;15.73;9.60;;;13.40;99.90;;;;;;5036984;28;20405;-53
2020/12/16 12:23:36;;;;;;;15.93;8.93;;;13.50;99.90;;;;;;5043884;28;20843;-54
2020/12/16 12:26:05;;;;;;;13.05;8.38;;;13.70;99.90;;;;;;5046174;28;20476;-53
2020/12/16 12:28:30;;;;;;;15.13;9.23;;;13.90;99.90;;;;;;5047232;28;20878;-53
2020/12/16 12:30:56;;;;;;;14.03;8.97;;;14.10;99.90;;;;;;5046025;28;20381;-53
2020/12/16 12:33:22;;;;;;;15.05;8.90;;;14.20;99.90;;;;;;5042786;28;20392;-53
2020/12/16 12:35:48;;;;;;;12.82;8.27;;;14.20;99.90;;;;;;5043754;28;20400;-53
2020/12/16 12:38:14;;;;;;;14.60;9.88;;;14.10;99.90;;;;;;5046595;28;20425;-53
2020/12/16 12:40:40;;;;;;;15.60;9.38;;;14.10;99.90;;;;;;5044814;28;20462;-53
2020/12/16 12:43:07;;;;;;;14.90;8.93;;;14.00;99.90;;;;;;5039847;28;20488;-53